| time (UTC) | temp F | wind direction | speed knots | gust knots | rain 1hr in | rain 24hr in | rain mn in | humidity % | barometer mb |
| 20260509204117 | 72 | 273 | 5.2 | 15.6 | 0.00 | 0.00 | 0.00 | 38 | 1001.0 |
| 20260509203833 | 72 | 223 | 4.3 | 15.6 | 0.00 | 0.00 | 0.00 | 36 | 1001.0 |
| 20260509203107 | 72 | 260 | 3.5 | 7.0 | 0.00 | 0.00 | 0.00 | 36 | 1000.9 |
| 20260509202601 | 72 | 210 | 3.5 | 7.8 | 0.00 | 0.00 | 0.00 | 36 | 1000.9 |
| 20260509202050 | 72 | 273 | 5.2 | 11.3 | 0.00 | 0.00 | 0.00 | 35 | 1000.9 |
| 20260509201548 | 72 | 309 | 6.1 | 16.5 | 0.00 | 0.00 | 0.00 | 34 | 1001.0 |
| 20260509201048 | 73 | 241 | 6.1 | 16.5 | 0.00 | 0.00 | 0.00 | 33 | 1001.0 |
| 20260509200547 | 73 | 306 | 5.2 | 13.0 | 0.00 | 0.00 | 0.00 | 33 | 1001.0 |
| 20260509200052 | 73 | 277 | 4.3 | 12.2 | 0.00 | 0.00 | 0.00 | 34 | 1000.8 |
| 20260509195546 | 73 | 304 | 4.3 | 12.2 | 0.00 | 0.00 | 0.00 | 33 | 1000.8 |
| 20260509195045 | 74 | 275 | 5.2 | 13.9 | 0.00 | 0.00 | 0.00 | 34 | 1000.8 |
| 20260509194546 | 74 | 235 | 6.1 | 13.9 | 0.00 | 0.00 | 0.00 | 32 | 1000.8 |
| 20260509194045 | 74 | 284 | 4.3 | 13.9 | 0.00 | 0.00 | 0.00 | 34 | 1000.8 |
| 20260509193542 | 74 | 227 | 4.3 | 11.3 | 0.00 | 0.00 | 0.00 | 34 | 1000.8 |
| 20260509193305 | 74 | 290 | 4.3 | 9.6 | 0.00 | 0.00 | 0.00 | 34 | 1000.7 |
| 20260509192542 | 74 | 239 | 4.3 | 8.7 | 0.00 | 0.00 | 0.00 | 35 | 1000.7 |
| 20260509192040 | 74 | 240 | 4.3 | 8.7 | 0.00 | 0.00 | 0.00 | 35 | 1000.7 |
| 20260509191540 | 73 | 284 | 5.2 | 10.4 | 0.00 | 0.00 | 0.00 | 38 | 1001.1 |
| 20260509191040 | 72 | 257 | 4.3 | 13.9 | 0.00 | 0.00 | 0.00 | 40 | 1001.1 |
| 20260509190542 | 73 | 251 | 4.3 | 13.9 | 0.00 | 0.00 | 0.00 | 41 | 1001.1 |
| 20260509190042 | 73 | 205 | 6.1 | 14.8 | 0.00 | 0.00 | 0.00 | 42 | 1000.9 |
| 20260509185539 | 73 | 223 | 7.0 | 15.6 | 0.00 | 0.00 | 0.00 | 41 | 1000.9 |
| 20260509185307 | 74 | 249 | 7.0 | 16.5 | 0.00 | 0.00 | 0.00 | 41 | 1000.9 |
| 20260509184539 | 73 | 271 | 6.1 | 16.5 | 0.00 | 0.00 | 0.00 | 41 | 1000.8 |
| 20260509184039 | 73 | 234 | 6.1 | 15.6 | 0.00 | 0.00 | 0.00 | 42 | 1000.8 |
| 20260509183800 | 73 | 246 | 5.2 | 13.9 | 0.00 | 0.00 | 0.00 | 42 | 1000.8 |
| 20260509183039 | 72 | 257 | 6.1 | 13.9 | 0.00 | 0.00 | 0.00 | 43 | 1000.7 |
| 20260509182542 | 72 | 258 | 7.0 | 17.4 | 0.00 | 0.00 | 0.00 | 44 | 1000.7 |
| 20260509182043 | 72 | 265 | 6.1 | 17.4 | 0.00 | 0.00 | 0.00 | 45 | 1000.7 |
| 20260509181542 | 71 | 235 | 5.2 | 12.2 | 0.00 | 0.00 | 0.00 | 46 | 1000.8 |
| 20260509181040 | 71 | 294 | 4.3 | 9.6 | 0.00 | 0.00 | 0.00 | 48 | 1000.8 |
| 20260509180534 | 71 | 242 | 6.1 | 13.9 | 0.00 | 0.00 | 0.00 | 48 | 1000.8 |
| 20260509180028 | 71 | 227 | 7.0 | 16.5 | 0.00 | 0.00 | 0.00 | 49 | 1001.2 |
| 20260509175743 | 71 | 236 | 7.0 | 16.5 | 0.00 | 0.00 | 0.00 | 48 | 1001.2 |
| 20260509175015 | 70 | 223 | 6.1 | 12.2 | 0.00 | 0.00 | 0.00 | 49 | 1001.2 |
| 20260509174509 | 71 | 211 | 5.2 | 12.2 | 0.00 | 0.00 | 0.00 | 50 | 1001.2 |
| 20260509174004 | 70 | 218 | 6.1 | 14.8 | 0.00 | 0.00 | 0.00 | 51 | 1001.2 |
| 20260509173457 | 70 | 223 | 7.0 | 14.8 | 0.00 | 0.00 | 0.00 | 50 | 1001.0 |
| 20260509172958 | 70 | 227 | 6.1 | 14.8 | 0.00 | 0.00 | 0.00 | 49 | 1001.0 |
| 20260509172450 | 70 | 303 | 5.2 | 13.0 | 0.00 | 0.00 | 0.00 | 50 | 1001.0 |
| 20260509171938 | 69 | 225 | 5.2 | 13.0 | 0.00 | 0.00 | 0.00 | 52 | 1001.2 |
| 20260509171702 | 69 | 267 | 6.1 | 12.2 | 0.00 | 0.00 | 0.00 | 55 | 1001.2 |
| 20260509170926 | 69 | 219 | 6.1 | 12.2 | 0.00 | 0.00 | 0.00 | 54 | 1001.2 |
| 20260509170644 | 68 | 258 | 5.2 | 12.2 | 0.00 | 0.00 | 0.00 | 55 | 1001.2 |
| 20260509165910 | 68 | 265 | 6.1 | 15.6 | 0.00 | 0.00 | 0.00 | 58 | 1001.2 |
| 20260509165408 | 67 | 208 | 5.2 | 15.6 | 0.00 | 0.00 | 0.00 | 62 | 1001.2 |
| 20260509165123 | 67 | 238 | 5.2 | 12.2 | 0.00 | 0.00 | 0.00 | 64 | 1001.2 |
| 20260509164355 | 67 | 211 | 6.1 | 12.2 | 0.00 | 0.00 | 0.00 | 64 | 1001.2 |
| 20260509164109 | 66 | 253 | 5.2 | 11.3 | 0.00 | 0.00 | 0.00 | 63 | 1001.2 |
| 20260509163340 | 66 | 247 | 5.2 | 12.2 | 0.00 | 0.00 | 0.00 | 64 | 1001.1 |
| 20260509162839 | 66 | 243 | 5.2 | 12.2 | 0.00 | 0.00 | 0.00 | 63 | 1001.1 |
| 20260509162558 | 65 | 239 | 7.0 | 13.0 | 0.00 | 0.00 | 0.00 | 67 | 1001.1 |
| 20260509162054 | 65 | 230 | 6.1 | 13.0 | 0.00 | 0.00 | 0.00 | 68 | 1001.2 |
| 20260509161335 | 65 | 221 | 6.1 | 13.0 | 0.00 | 0.00 | 0.00 | 68 | 1001.2 |
| 20260509160835 | 64 | 222 | 6.1 | 13.0 | 0.00 | 0.00 | 0.00 | 66 | 1001.2 |
| 20260509160336 | 64 | 225 | 6.1 | 14.8 | 0.00 | 0.00 | 0.00 | 70 | 1001.5 |
| 20260509160054 | 64 | 245 | 6.1 | 14.8 | 0.00 | 0.00 | 0.00 | 69 | 1001.5 |
| 20260509155335 | 64 | 233 | 6.1 | 13.9 | 0.00 | 0.00 | 0.00 | 70 | 1001.5 |
| 20260509154836 | 63 | 230 | 5.2 | 12.2 | 0.00 | 0.00 | 0.00 | 70 | 1001.5 |
| 20260509154334 | 63 | 240 | 5.2 | 13.9 | 0.00 | 0.00 | 0.00 | 72 | 1001.5 |
| 20260509153838 | 63 | 252 | 6.1 | 13.9 | 0.00 | 0.00 | 0.00 | 72 | 1001.5 |
| 20260509153334 | 62 | 227 | 5.2 | 13.9 | 0.00 | 0.00 | 0.00 | 72 | 1001.6 |
| 20260509152835 | 62 | 235 | 5.2 | 11.3 | 0.00 | 0.00 | 0.00 | 72 | 1001.6 |
| 20260509152831 | 62 | 294 | 5.2 | 12.2 | 0.00 | 0.00 | 0.00 | 72 | 1001.6 |
| 20260509151835 | 62 | 234 | 6.1 | 12.2 | 0.00 | 0.00 | 0.00 | 74 | 1001.3 |
| 20260509151555 | 61 | 190 | 5.2 | 11.3 | 0.00 | 0.00 | 0.00 | 75 | 1001.3 |
| 20260509150836 | 61 | 263 | 5.2 | 10.4 | 0.00 | 0.00 | 0.00 | 76 | 1001.3 |
| 20260509150329 | 60 | 215 | 5.2 | 10.4 | 0.00 | 0.00 | 0.00 | 77 | 1001.3 |
| 20260509150041 | 60 | 192 | 4.3 | 9.6 | 0.00 | 0.00 | 0.00 | 78 | 1001.3 |
| 20260509145319 | 59 | 218 | 5.2 | 12.2 | 0.00 | 0.00 | 0.00 | 79 | 1001.3 |
| 20260509144819 | 58 | 229 | 6.1 | 12.2 | 0.00 | 0.00 | 0.00 | 79 | 1001.3 |
| 20260509144538 | 58 | 243 | 6.1 | 12.2 | 0.00 | 0.00 | 0.00 | 78 | 1001.3 |
| 20260509143819 | 58 | 227 | 6.1 | 13.0 | 0.00 | 0.00 | 0.00 | 79 | 1001.3 |
| 20260509143536 | 58 | 241 | 6.1 | 13.0 | 0.00 | 0.00 | 0.00 | 79 | 1001.4 |
| 20260509142818 | 58 | 263 | 6.1 | 15.6 | 0.00 | 0.00 | 0.00 | 78 | 1001.4 |
| 20260509142539 | 58 | 229 | 5.2 | 15.6 | 0.00 | 0.00 | 0.00 | 79 | 1001.4 |
| 20260509141818 | 58 | 241 | 5.2 | 11.3 | 0.00 | 0.00 | 0.00 | 79 | 1001.2 |
| 20260509141313 | 58 | 245 | 6.1 | 12.2 | 0.00 | 0.00 | 0.00 | 80 | 1001.2 |
| 20260509140804 | 57 | 221 | 6.1 | 12.2 | 0.00 | 0.00 | 0.00 | 82 | 1001.2 |
| 20260509140253 | 57 | 232 | 6.1 | 12.2 | 0.00 | 0.00 | 0.00 | 82 | 1001.2 |
| 20260509135752 | 56 | 252 | 6.1 | 13.0 | 0.00 | 0.00 | 0.00 | 84 | 1001.2 |
| 20260509135246 | 56 | 241 | 6.1 | 13.0 | 0.00 | 0.00 | 0.00 | 85 | 1001.2 |
| 20260509134741 | 55 | 223 | 6.1 | 12.2 | 0.00 | 0.00 | 0.00 | 86 | 1001.3 |
| 20260509134234 | 55 | 206 | 6.1 | 12.2 | 0.00 | 0.00 | 0.00 | 87 | 1001.3 |
| 20260509133724 | 54 | 221 | 6.1 | 11.3 | 0.00 | 0.00 | 0.00 | 89 | 1001.3 |
| 20260509133224 | 54 | 224 | 6.1 | 11.3 | 0.00 | 0.00 | 0.00 | 90 | 1001.4 |
| 20260509132716 | 53 | 231 | 6.1 | 12.2 | 0.00 | 0.00 | 0.00 | 91 | 1001.4 |
| 20260509132210 | 53 | 218 | 5.2 | 12.2 | 0.00 | 0.00 | 0.00 | 91 | 1001.4 |
| 20260509131704 | 53 | 225 | 5.2 | 12.2 | 0.00 | 0.00 | 0.00 | 92 | 1001.3 |
| 20260509131158 | 52 | 240 | 5.2 | 13.0 | 0.00 | 0.00 | 0.00 | 92 | 1001.3 |
| 20260509130652 | 52 | 231 | 4.3 | 13.0 | 0.00 | 0.00 | 0.00 | 93 | 1001.3 |
| 20260509130147 | 51 | 233 | 5.2 | 12.2 | 0.00 | 0.00 | 0.00 | 93 | 1001.3 |
| 20260509125641 | 51 | 252 | 6.1 | 12.2 | 0.00 | 0.00 | 0.00 | 92 | 1001.3 |
| 20260509125134 | 51 | 217 | 6.1 | 10.4 | 0.00 | 0.00 | 0.00 | 92 | 1001.3 |
| 20260509124629 | 51 | 246 | 7.0 | 11.3 | 0.00 | 0.00 | 0.00 | 93 | 1001.5 |
| 20260509124342 | 50 | 223 | 6.1 | 11.3 | 0.00 | 0.00 | 0.00 | 92 | 1001.5 |
| 20260509123611 | 50 | 242 | 5.2 | 10.4 | 0.00 | 0.00 | 0.00 | 92 | 1001.5 |
| 20260509123110 | 50 | 225 | 5.2 | 9.6 | 0.00 | 0.00 | 0.00 | 92 | 1001.6 |
| 20260509122605 | 50 | 215 | 5.2 | 10.4 | 0.00 | 0.00 | 0.00 | 92 | 1001.6 |
| 20260509122057 | 50 | 242 | 5.2 | 10.4 | 0.00 | 0.00 | 0.00 | 92 | 1001.6 |
| 20260509121817 | 50 | 225 | 4.3 | 9.6 | 0.00 | 0.00 | 0.00 | 92 | 1001.3 |
| 20260509121532 | 50 | 215 | 3.5 | 9.6 | 0.00 | 0.00 | 0.00 | 92 | 1001.3 |
| 20260509120540 | 50 | 231 | 4.3 | 9.6 | 0.00 | 0.00 | 0.00 | 92 | 1001.3 |
| 20260509120030 | 50 | 257 | 5.2 | 9.6 | 0.00 | 0.00 | 0.00 | 92 | 1000.7 |
| 20260509115748 | 50 | 249 | 4.3 | 10.4 | 0.00 | 0.00 | 0.00 | 92 | 1000.7 |
| 20260509115244 | 50 | 199 | 4.3 | 10.4 | 0.00 | 0.00 | 0.00 | 92 | 1000.7 |
| 20260509114745 | 50 | 236 | 4.3 | 8.7 | 0.00 | 0.00 | 0.00 | 92 | 1000.6 |
| 20260509114504 | 50 | 221 | 3.5 | 7.8 | 0.00 | 0.00 | 0.00 | 92 | 1000.6 |
| 20260509113501 | 50 | 186 | 3.5 | 7.8 | 0.00 | 0.00 | 0.00 | 92 | 1000.6 |
| 20260509113224 | 50 | 211 | 4.3 | 9.6 | 0.00 | 0.00 | 0.00 | 92 | 1000.6 |
| 20260509112453 | 50 | 209 | 4.3 | 9.6 | 0.00 | 0.00 | 0.00 | 92 | 1000.6 |
| 20260509112205 | 50 | 210 | 4.3 | 9.6 | 0.00 | 0.00 | 0.00 | 92 | 1000.7 |
| 20260509111442 | 50 | 164 | 4.3 | 9.6 | 0.00 | 0.00 | 0.00 | 92 | 1000.7 |
| 20260509110942 | 50 | 248 | 4.3 | 11.3 | 0.00 | 0.00 | 0.00 | 92 | 1000.7 |
| 20260509110442 | 50 | 190 | 3.5 | 11.3 | 0.00 | 0.00 | 0.00 | 92 | 1000.8 |
| 20260509110435 | 50 | 202 | 3.5 | 7.8 | 0.00 | 0.00 | 0.00 | 92 | 1000.8 |
| 20260509105442 | 50 | 207 | 4.3 | 8.7 | 0.00 | 0.00 | 0.00 | 92 | 1000.8 |
| 20260509104943 | 50 | 228 | 4.3 | 8.7 | 0.00 | 0.00 | 0.00 | 92 | 1000.7 |
| 20260509104442 | 50 | 213 | 3.5 | 8.7 | 0.00 | 0.00 | 0.00 | 92 | 1000.7 |
| 20260509103942 | 50 | 211 | 3.5 | 8.7 | 0.00 | 0.00 | 0.00 | 92 | 1000.7 |
| 20260509103442 | 49 | 190 | 3.5 | 7.0 | 0.00 | 0.00 | 0.00 | 92 | 1000.9 |
| 20260509102942 | 49 | 221 | 3.5 | 7.0 | 0.00 | 0.00 | 0.00 | 92 | 1000.9 |
| 20260509102444 | 49 | 221 | 3.5 | 7.0 | 0.00 | 0.00 | 0.00 | 91 | 1000.9 |
| 20260509101946 | 49 | 203 | 3.5 | 6.1 | 0.00 | 0.00 | 0.00 | 91 | 1001.1 |
| 20260509101924 | 49 | 201 | 3.5 | 7.0 | 0.00 | 0.00 | 0.00 | 91 | 1001.1 |
| 20260509100927 | 49 | 217 | 3.5 | 7.0 | 0.00 | 0.00 | 0.00 | 91 | 1001.1 |
| 20260509100416 | 49 | 207 | 3.5 | 7.8 | 0.00 | 0.00 | 0.00 | 91 | 1001.2 |
| 20260509095904 | 49 | 192 | 3.5 | 7.8 | 0.00 | 0.00 | 0.00 | 91 | 1001.2 |
| 20260509095351 | 49 | 167 | 3.5 | 7.0 | 0.00 | 0.00 | 0.00 | 91 | 1001.2 |
| 20260509094838 | 49 | 192 | 3.5 | 9.6 | 0.00 | 0.00 | 0.00 | 91 | 1001.2 |
| 20260509094331 | 49 | 191 | 3.5 | 9.6 | 0.00 | 0.00 | 0.00 | 91 | 1001.2 |
| 20260509093825 | 49 | 209 | 2.6 | 6.1 | 0.00 | 0.00 | 0.00 | 91 | 1001.2 |
| 20260509093318 | 49 | 219 | 2.6 | 7.0 | 0.00 | 0.00 | 0.00 | 91 | 1001.5 |
| 20260509092812 | 49 | 219 | 2.6 | 7.0 | 0.00 | 0.00 | 0.00 | 91 | 1001.5 |
| 20260509092305 | 49 | 190 | 3.5 | 7.0 | 0.00 | 0.00 | 0.00 | 91 | 1001.5 |
| 20260509091800 | 49 | 210 | 2.6 | 6.1 | 0.00 | 0.00 | 0.00 | 91 | 1001.3 |
| 20260509091254 | 49 | 175 | 1.7 | 5.2 | 0.00 | 0.00 | 0.00 | 91 | 1001.3 |
| 20260509090749 | 49 | 215 | 2.6 | 4.3 | 0.00 | 0.00 | 0.00 | 90 | 1001.3 |
| 20260509090242 | 49 | 204 | 1.7 | 4.3 | 0.00 | 0.00 | 0.00 | 90 | 1001.3 |
| 20260509085737 | 49 | 209 | 1.7 | 5.2 | 0.00 | 0.00 | 0.00 | 90 | 1001.3 |
| 20260509085231 | 49 | 203 | 1.7 | 5.2 | 0.00 | 0.00 | 0.00 | 90 | 1001.3 |
| 20260509084719 | 49 | 225 | 2.6 | 5.2 | 0.00 | 0.00 | 0.00 | 90 | 1001.3 |
| 20260509084218 | 49 | 211 | 2.6 | 6.1 | 0.00 | 0.00 | 0.00 | 90 | 1001.3 |
| 20260509084203 | 50 | 210 | 2.6 | 6.1 | 0.00 | 0.00 | 0.00 | 90 | 1001.3 |
| 20260509083206 | 50 | 221 | 2.6 | 5.2 | 0.00 | 0.00 | 0.00 | 90 | 1001.2 |
| 20260509082919 | 50 | 200 | 1.7 | 5.2 | 0.00 | 0.00 | 0.00 | 90 | 1001.2 |
| 20260509082413 | 50 | 211 | 1.7 | 4.3 | 0.00 | 0.00 | 0.00 | 90 | 1001.2 |
| 20260509081648 | 50 | 209 | 2.6 | 4.3 | 0.00 | 0.00 | 0.00 | 90 | 1001.3 |
| 20260509081144 | 49 | 222 | 2.6 | 6.1 | 0.00 | 0.00 | 0.00 | 90 | 1001.3 |
| 20260509080637 | 49 | 233 | 2.6 | 6.1 | 0.00 | 0.00 | 0.00 | 90 | 1001.3 |
| 20260509080132 | 49 | 215 | 1.7 | 4.3 | 0.00 | 0.00 | 0.00 | 90 | 1001.4 |
| 20260509075624 | 49 | 225 | 1.7 | 4.3 | 0.00 | 0.00 | 0.00 | 90 | 1001.4 |
| 20260509075119 | 49 | 207 | 1.7 | 4.3 | 0.00 | 0.00 | 0.00 | 90 | 1001.4 |
| 20260509074829 | 49 | 202 | 2.6 | 5.2 | 0.00 | 0.00 | 0.00 | 90 | 1001.8 |
| 20260509074107 | 49 | 216 | 2.6 | 5.2 | 0.00 | 0.00 | 0.00 | 89 | 1001.8 |
| 20260509073600 | 49 | 231 | 2.6 | 5.2 | 0.00 | 0.00 | 0.00 | 89 | 1001.8 |
| 20260509073053 | 49 | 221 | 2.6 | 6.1 | 0.00 | 0.00 | 0.00 | 89 | 1001.8 |
| 20260509072548 | 50 | 209 | 2.6 | 6.1 | 0.00 | 0.00 | 0.00 | 89 | 1001.8 |
| 20260509072038 | 50 | 225 | 2.6 | 5.2 | 0.00 | 0.00 | 0.00 | 89 | 1001.8 |
| 20260509071535 | 50 | 209 | 2.6 | 5.2 | 0.00 | 0.00 | 0.00 | 89 | 1001.8 |
| 20260509071029 | 50 | 223 | 2.6 | 5.2 | 0.00 | 0.00 | 0.00 | 89 | 1001.8 |
| 20260509070526 | 50 | 219 | 2.6 | 4.3 | 0.00 | 0.00 | 0.00 | 88 | 1001.8 |
| 20260509070026 | 50 | 223 | 2.6 | 5.2 | 0.00 | 0.00 | 0.00 | 88 | 1001.9 |
| 20260509065528 | 50 | 194 | 3.5 | 7.0 | 0.00 | 0.00 | 0.00 | 88 | 1001.9 |
| 20260509065027 | 50 | 225 | 3.5 | 7.0 | 0.00 | 0.00 | 0.00 | 88 | 1001.9 |
| 20260509064527 | 50 | 225 | 2.6 | 5.2 | 0.00 | 0.00 | 0.00 | 88 | 1002.1 |
| 20260509064028 | 51 | 220 | 2.6 | 4.3 | 0.00 | 0.00 | 0.00 | 88 | 1002.1 |
| 20260509063527 | 51 | 215 | 2.6 | 5.2 | 0.00 | 0.00 | 0.00 | 88 | 1002.1 |
| 20260509063251 | 51 | 225 | 2.6 | 5.2 | 0.00 | 0.00 | 0.00 | 87 | 1002.3 |
| 20260509062527 | 51 | 238 | 1.7 | 5.2 | 0.00 | 0.00 | 0.00 | 87 | 1002.3 |
| 20260509062027 | 51 | 226 | 1.7 | 4.3 | 0.00 | 0.00 | 0.00 | 87 | 1002.3 |
| 20260509061529 | 51 | 221 | 2.6 | 4.3 | 0.00 | 0.00 | 0.00 | 87 | 1002.4 |
| 20260509061031 | 51 | 221 | 2.6 | 7.0 | 0.00 | 0.00 | 0.00 | 87 | 1002.4 |
| 20260509060524 | 51 | 205 | 2.6 | 7.0 | 0.00 | 0.00 | 0.00 | 87 | 1002.4 |
| 20260509060012 | 51 | 224 | 3.5 | 6.1 | 0.00 | 0.00 | 0.00 | 87 | 1002.5 |
| 20260509055458 | 51 | 228 | 3.5 | 6.1 | 0.00 | 0.00 | 0.00 | 86 | 1002.5 |
| 20260509055217 | 52 | 217 | 2.6 | 6.1 | 0.00 | 0.00 | 0.00 | 86 | 1002.5 |
| 20260509054443 | 52 | 225 | 3.5 | 6.1 | 0.00 | 0.00 | 0.00 | 86 | 1002.5 |
| 20260509053943 | 52 | 232 | 2.6 | 5.2 | 0.00 | 0.00 | 0.00 | 86 | 1002.5 |
| 20260509053440 | 52 | 220 | 3.5 | 6.1 | 0.00 | 0.00 | 0.00 | 86 | 1002.6 |
| 20260509052940 | 52 | 223 | 3.5 | 7.0 | 0.00 | 0.00 | 0.00 | 86 | 1002.6 |
| 20260509052441 | 53 | 230 | 3.5 | 7.0 | 0.00 | 0.00 | 0.00 | 85 | 1002.6 |
| 20260509051940 | 53 | 229 | 3.5 | 6.1 | 0.00 | 0.00 | 0.00 | 85 | 1002.4 |
| 20260509051442 | 53 | 219 | 3.5 | 7.0 | 0.00 | 0.00 | 0.00 | 86 | 1002.4 |
| 20260509051438 | 53 | 227 | 3.5 | 7.8 | 0.00 | 0.00 | 0.00 | 86 | 1002.4 |
| 20260509050439 | 53 | 192 | 3.5 | 7.8 | 0.00 | 0.00 | 0.00 | 86 | 1002.8 |
| 20260509045939 | 53 | 211 | 4.3 | 7.8 | 0.00 | 0.00 | 0.00 | 85 | 1002.8 |
| 20260509045438 | 53 | 221 | 4.3 | 7.8 | 0.00 | 0.00 | 0.00 | 85 | 1002.8 |
| 20260509044938 | 53 | 215 | 4.3 | 7.0 | 0.00 | 0.00 | 0.00 | 85 | 1002.9 |
| 20260509044433 | 54 | 223 | 3.5 | 7.0 | 0.00 | 0.00 | 0.00 | 85 | 1002.9 |
| 20260509043920 | 54 | 231 | 2.6 | 6.1 | 0.00 | 0.00 | 0.00 | 85 | 1002.9 |
| 20260509043408 | 54 | 220 | 3.5 | 6.1 | 0.00 | 0.00 | 0.00 | 84 | 1002.9 |
| 20260509042856 | 54 | 206 | 3.5 | 7.0 | 0.00 | 0.00 | 0.00 | 84 | 1002.9 |
| 20260509042354 | 54 | 192 | 3.5 | 7.0 | 0.00 | 0.00 | 0.00 | 84 | 1002.9 |
| 20260509041849 | 54 | 220 | 3.5 | 7.0 | 0.00 | 0.00 | 0.00 | 84 | 1002.9 |
| 20260509041602 | 54 | 214 | 3.5 | 7.0 | 0.00 | 0.00 | 0.00 | 84 | 1002.9 |
| 20260509040837 | 55 | 215 | 3.5 | 7.8 | 0.00 | 0.00 | 0.00 | 84 | 1002.9 |
| 20260509040328 | 55 | 227 | 4.3 | 8.7 | 0.00 | 0.00 | 0.00 | 83 | 1003.1 |
| 20260509035824 | 55 | 189 | 4.3 | 7.8 | 0.00 | 0.00 | 0.00 | 83 | 1003.1 |
| 20260509035319 | 55 | 223 | 3.5 | 7.8 | 0.00 | 0.00 | 0.00 | 83 | 1003.1 |
| 20260509034813 | 55 | 236 | 3.5 | 7.8 | 0.00 | 0.00 | 0.00 | 82 | 1003.3 |
| 20260509034534 | 55 | 220 | 3.5 | 7.0 | 0.00 | 0.00 | 0.00 | 82 | 1003.3 |
| 20260509033800 | 55 | 224 | 2.6 | 6.1 | 0.00 | 0.00 | 0.00 | 82 | 1003.3 |
| 20260509033254 | 56 | 221 | 3.5 | 6.1 | 0.00 | 0.00 | 0.00 | 81 | 1003.1 |
| 20260509032744 | 56 | 215 | 3.5 | 6.1 | 0.00 | 0.00 | 0.00 | 81 | 1003.1 |
| 20260509032242 | 56 | 207 | 3.5 | 6.1 | 0.00 | 0.00 | 0.00 | 80 | 1003.1 |
| 20260509032004 | 56 | 218 | 2.6 | 6.1 | 0.00 | 0.00 | 0.00 | 80 | 1003.1 |
| 20260509031450 | 56 | 201 | 3.5 | 7.0 | 0.00 | 0.00 | 0.00 | 79 | 1003.1 |
| 20260509030724 | 56 | 151 | 3.5 | 7.0 | 0.00 | 0.00 | 0.00 | 78 | 1003.1 |
| 20260509030214 | 56 | 217 | 3.5 | 7.0 | 0.00 | 0.00 | 0.00 | 77 | 1003.3 |
| 20260509025712 | 57 | 205 | 2.6 | 6.1 | 0.00 | 0.00 | 0.00 | 76 | 1003.3 |
| 20260509025206 | 57 | 172 | 3.5 | 6.1 | 0.00 | 0.00 | 0.00 | 76 | 1003.3 |
| 20260509024700 | 57 | 181 | 3.5 | 6.1 | 0.00 | 0.00 | 0.00 | 76 | 1003.3 |
| 20260509024154 | 57 | 196 | 2.6 | 6.1 | 0.00 | 0.00 | 0.00 | 76 | 1003.3 |
| 20260509023648 | 57 | 219 | 2.6 | 5.2 | 0.00 | 0.00 | 0.00 | 76 | 1003.3 |
| 20260509023403 | 57 | 203 | 2.6 | 5.2 | 0.00 | 0.00 | 0.00 | 76 | 1003.3 |
| 20260509022632 | 57 | 199 | 2.6 | 5.2 | 0.00 | 0.00 | 0.00 | 75 | 1003.3 |
| 20260509022131 | 57 | 180 | 2.6 | 5.2 | 0.00 | 0.00 | 0.00 | 75 | 1003.3 |
| 20260509021844 | 58 | 254 | 2.6 | 5.2 | 0.00 | 0.00 | 0.00 | 75 | 1003.1 |
| 20260509021122 | 58 | 208 | 2.6 | 3.5 | 0.00 | 0.00 | 0.00 | 75 | 1003.1 |
| 20260509020622 | 58 | 188 | 2.6 | 5.2 | 0.00 | 0.00 | 0.00 | 75 | 1003.1 |
| 20260509020122 | 58 | 227 | 2.6 | 5.2 | 0.00 | 0.00 | 0.00 | 75 | 1002.9 |
| 20260509015622 | 58 | 232 | 2.6 | 7.8 | 0.00 | 0.00 | 0.00 | 74 | 1002.9 |
| 20260509015355 | 58 | 226 | 3.5 | 7.8 | 0.00 | 0.00 | 0.00 | 74 | 1002.9 |
| 20260509014621 | 59 | 180 | 3.5 | 7.0 | 0.00 | 0.00 | 0.00 | 74 | 1002.8 |
| 20260509014122 | 59 | 205 | 3.5 | 7.8 | 0.00 | 0.00 | 0.00 | 74 | 1002.8 |
| 20260509013851 | 59 | 236 | 4.3 | 7.8 | 0.00 | 0.00 | 0.00 | 74 | 1002.8 |
| 20260509013345 | 59 | 212 | 4.3 | 7.8 | 0.00 | 0.00 | 0.00 | 73 | 1002.7 |
| 20260509012849 | 59 | 184 | 3.5 | 9.6 | 0.00 | 0.00 | 0.00 | 73 | 1002.7 |
| 20260509012122 | 60 | 240 | 3.5 | 9.6 | 0.00 | 0.00 | 0.00 | 73 | 1002.7 |
| 20260509011622 | 60 | 209 | 3.5 | 7.0 | 0.00 | 0.00 | 0.00 | 72 | 1002.9 |
| 20260509011122 | 60 | 212 | 3.5 | 7.0 | 0.00 | 0.00 | 0.00 | 72 | 1002.9 |
| 20260509010621 | 60 | 225 | 3.5 | 6.1 | 0.00 | 0.00 | 0.00 | 71 | 1002.9 |
| 20260509010122 | 61 | 210 | 3.5 | 7.0 | 0.00 | 0.00 | 0.00 | 70 | 1002.8 |
| 20260509005615 | 61 | 190 | 2.6 | 7.0 | 0.00 | 0.00 | 0.00 | 69 | 1002.8 |
| 20260509005104 | 61 | 169 | 2.6 | 4.3 | 0.00 | 0.00 | 0.00 | 68 | 1002.8 |
| 20260509004552 | 62 | 170 | 1.7 | 4.3 | 0.00 | 0.00 | 0.00 | 67 | 1002.7 |
| 20260509004041 | 62 | 207 | 1.7 | 3.5 | 0.00 | 0.00 | 0.00 | 66 | 1002.7 |
| 20260509003529 | 62 | 199 | 1.7 | 3.5 | 0.00 | 0.00 | 0.00 | 65 | 1002.7 |
| 20260509003015 | 62 | 179 | 2.6 | 6.1 | 0.00 | 0.00 | 0.00 | 63 | 1002.7 |
| 20260509002725 | 63 | 239 | 2.6 | 6.1 | 0.00 | 0.00 | 0.00 | 63 | 1002.7 |
| 20260509002214 | 63 | 234 | 2.6 | 6.1 | 0.00 | 0.00 | 0.00 | 63 | 1002.8 |
| 20260509001441 | 63 | 224 | 3.5 | 6.1 | 0.00 | 0.00 | 0.00 | 63 | 1002.8 |
| 20260509000940 | 63 | 225 | 3.5 | 7.8 | 0.00 | 0.00 | 0.00 | 63 | 1002.8 |
| 20260509000435 | 64 | 232 | 3.5 | 8.7 | 0.00 | 0.00 | 0.00 | 63 | 1002.8 |
| 20260508235927 | 64 | 220 | 3.5 | 8.7 | 0.00 | 0.00 | 0.00 | 63 | 1002.8 |
| 20260508235421 | 64 | 244 | 4.3 | 8.7 | 0.00 | 0.00 | 0.00 | 63 | 1002.8 |
| 20260508234915 | 64 | 238 | 3.5 | 8.7 | 0.00 | 0.00 | 0.00 | 64 | 1002.8 |
| 20260508234410 | 64 | 250 | 3.5 | 7.0 | 0.00 | 0.00 | 0.00 | 65 | 1002.8 |
| 20260508233859 | 64 | 245 | 4.3 | 7.8 | 0.00 | 0.00 | 0.00 | 65 | 1002.8 |
| 20260508233357 | 64 | 219 | 4.3 | 7.8 | 0.00 | 0.00 | 0.00 | 65 | 1002.9 |
| 20260508232852 | 64 | 241 | 3.5 | 7.0 | 0.00 | 0.00 | 0.00 | 64 | 1002.9 |
| 20260508232346 | 64 | 230 | 3.5 | 7.8 | 0.00 | 0.00 | 0.00 | 65 | 1002.9 |
| 20260508231840 | 64 | 248 | 4.3 | 7.8 | 0.00 | 0.00 | 0.00 | 65 | 1002.9 |
| 20260508231334 | 64 | 225 | 4.3 | 8.7 | 0.00 | 0.00 | 0.00 | 65 | 1002.9 |
| 20260508230829 | 64 | 223 | 5.2 | 11.3 | 0.00 | 0.00 | 0.00 | 63 | 1002.9 |
| 20260508230323 | 65 | 0 | 6.1 | 11.3 | 0.00 | 0.00 | 0.00 | 63 | 1002.9 |
| 20260508225816 | 65 | 219 | 5.2 | 12.2 | 0.00 | 0.00 | 0.00 | 64 | 1002.9 |
| 20260508225309 | 65 | 216 | 4.3 | 11.3 | 0.00 | 0.00 | 0.00 | 63 | 1002.9 |
| 20260508224803 | 65 | 217 | 5.2 | 9.6 | 0.00 | 0.00 | 0.00 | 62 | 1002.9 |
| 20260508224258 | 65 | 227 | 4.3 | 9.6 | 0.00 | 0.00 | 0.00 | 63 | 1002.9 |
| 20260508224012 | 65 | 242 | 4.3 | 8.7 | 0.00 | 0.00 | 0.00 | 64 | 1002.9 |
| 20260508223245 | 65 | 209 | 4.3 | 8.7 | 0.00 | 0.00 | 0.00 | 63 | 1002.9 |
| 20260508223005 | 65 | 257 | 4.3 | 8.7 | 0.00 | 0.00 | 0.00 | 63 | 1002.9 |
| 20260508222233 | 65 | 244 | 3.5 | 7.0 | 0.00 | 0.00 | 0.00 | 62 | 1002.9 |
| 20260508221729 | 65 | 221 | 4.3 | 11.3 | 0.00 | 0.00 | 0.00 | 61 | 1003.0 |
| 20260508221225 | 65 | 209 | 4.3 | 11.3 | 0.00 | 0.00 | 0.00 | 61 | 1003.0 |
| 20260508220725 | 65 | 234 | 4.3 | 8.7 | 0.00 | 0.00 | 0.00 | 61 | 1003.0 |
| 20260508220223 | 65 | 252 | 4.3 | 8.7 | 0.00 | 0.00 | 0.00 | 60 | 1002.9 |
| 20260508215723 | 65 | 231 | 3.5 | 8.7 | 0.00 | 0.00 | 0.00 | 61 | 1002.9 |
| 20260508215222 | 65 | 232 | 4.3 | 7.8 | 0.00 | 0.00 | 0.00 | 60 | 1002.9 |
| 20260508214940 | 65 | 173 | 4.3 | 7.8 | 0.00 | 0.00 | 0.00 | 60 | 1003.0 |
| 20260508214225 | 65 | 245 | 4.3 | 7.8 | 0.00 | 0.00 | 0.00 | 61 | 1003.0 |
| 20260508213720 | 65 | 164 | 4.3 | 10.4 | 0.00 | 0.00 | 0.00 | 61 | 1003.0 |
| 20260508213218 | 65 | 226 | 3.5 | 10.4 | 0.00 | 0.00 | 0.00 | 60 | 1003.2 |
| 20260508212719 | 65 | 261 | 3.5 | 7.8 | 0.00 | 0.00 | 0.00 | 61 | 1003.2 |
| 20260508212219 | 65 | 197 | 4.3 | 9.6 | 0.00 | 0.00 | 0.00 | 59 | 1003.2 |
| 20260508211936 | 66 | 238 | 3.5 | 9.6 | 0.00 | 0.00 | 0.00 | 58 | 1003.3 |
| 20260508211215 | 66 | 240 | 3.5 | 7.0 | 0.00 | 0.00 | 0.00 | 61 | 1003.3 |
| 20260508210714 | 66 | 258 | 3.5 | 7.0 | 0.00 | 0.00 | 0.00 | 59 | 1003.3 |
| 20260508210215 | 66 | 200 | 3.5 | 7.8 | 0.00 | 0.00 | 0.00 | 58 | 1003.4 |
| 20260508205715 | 66 | 229 | 2.6 | 8.7 | 0.00 | 0.00 | 0.00 | 59 | 1003.4 |
| 20260508205214 | 66 | 271 | 2.6 | 8.7 | 0.00 | 0.00 | 0.00 | 61 | 1003.4 |
| 20260508205159 | 65 | 186 | 3.5 | 6.1 | 0.00 | 0.00 | 0.00 | 61 | 1003.4 |